Time;durP1;ratioP1;P1;durP2;ratioP2;P2;SDS_P1;SDS_P2;PMS_P1;PMS_P2;Temp;Humidity;BMP_temperature;BMP_pressure;BME280_temperature;BME280_humidity;BME280_pressure;Samples;Min_cycle;Max_cycle;Signal;HPM_P1;HPM_P2
2022/02/07 00:01:00;;;;;;;1.70;0.50;;;;;;;;;;5115371;28;20024;-68
2022/02/07 00:05:55;;;;;;;0.70;0.60;;;;;;;;;;5115560;28;20036;-68
2022/02/07 00:08:21;;;;;;;2.33;0.60;;;;;;;;;;5115129;28;20031;-68
2022/02/07 00:10:47;;;;;;;1.63;0.43;;;;;;;;;;5115124;28;20065;-68
2022/02/07 00:13:14;;;;;;;1.95;0.60;;;;;;;;;;5115396;28;20067;-68
2022/02/07 00:15:40;;;;;;;3.50;0.80;;;;;;;;;;5115189;28;20031;-68
2022/02/07 00:18:07;;;;;;;0.73;0.50;;;;;;;;;;5115253;28;20424;-68
2022/02/07 00:20:36;;;;;;;1.58;0.88;;;;;;;;;;5114958;28;20185;-68
2022/02/07 00:23:03;;;;;;;1.23;0.50;;;;;;;;;;5115170;28;20019;-67
2022/02/07 00:25:29;;;;;;;1.33;0.50;;;;;;;;;;5114922;28;20505;-67
2022/02/07 00:27:55;;;;;;;1.63;0.70;;;;;;;;;;5115054;28;20020;-67
2022/02/07 00:30:22;;;;;;;0.98;0.45;;;;;;;;;;5114826;28;20030;-67
2022/02/07 00:32:48;;;;;;;0.90;0.50;;;;;;;;;;5115095;28;20028;-67
2022/02/07 00:35:17;;;;;;;1.00;0.50;;;;;;;;;;5114909;28;20035;-67
2022/02/07 00:37:45;;;;;;;1.67;0.57;;;;;;;;;;5115279;28;20386;-68
2022/02/07 00:43:04;;;;;;;1.70;0.68;;;;;;;;;;5114659;28;20028;-67
2022/02/07 00:45:41;;;;;;;1.50;0.43;;;;;;;;;;5114506;28;20036;-68
2022/02/07 00:48:08;;;;;;;5.25;0.50;;;;;;;;;;5114073;28;20016;-68
2022/02/07 00:50:35;;;;;;;1.02;0.40;;;;;;;;;;5114582;28;20023;-68
2022/02/07 00:53:01;;;;;;;0.90;0.50;;;;;;;;;;5114417;28;20016;-68
2022/02/07 00:55:27;;;;;;;1.75;0.60;;;;;;;;;;5114053;28;20557;-68
2022/02/07 00:57:54;;;;;;;0.65;0.35;;;;;;;;;;5114656;28;20016;-68
2022/02/07 01:00:21;;;;;;;1.23;0.70;;;;;;;;;;5114059;28;20023;-68
2022/02/07 01:02:47;;;;;;;1.60;0.70;;;;;;;;;;5114154;28;20059;-68
2022/02/07 01:05:13;;;;;;;0.88;0.52;;;;;;;;;;5114215;28;20043;-68
2022/02/07 01:07:42;;;;;;;1.45;0.60;;;;;;;;;;5114202;28;20027;-68
2022/02/07 01:10:08;;;;;;;2.15;0.47;;;;;;;;;;5113906;28;20081;-68
2022/02/07 01:55:44;;;;;;;1.17;0.45;;;;;;;;;;5112961;28;20490;-67
2022/02/07 01:58:12;;;;;;;1.90;0.38;;;;;;;;;;5113477;28;20024;-67
2022/02/07 02:00:39;;;;;;;0.52;0.30;;;;;;;;;;5112717;28;20027;-68
2022/02/07 02:03:06;;;;;;;2.17;0.47;;;;;;;;;;5113254;28;20051;-69
2022/02/07 02:05:36;;;;;;;1.65;0.40;;;;;;;;;;5112967;28;20115;-69
2022/02/07 02:08:13;;;;;;;0.80;0.50;;;;;;;;;;5112923;28;20027;-69
2022/02/07 02:10:43;;;;;;;0.80;0.30;;;;;;;;;;5113081;28;20027;-69
2022/02/07 02:13:13;;;;;;;1.85;0.45;;;;;;;;;;5113161;28;20114;-69
2022/02/07 02:47:08;;;;;;;0.80;0.40;;;;;;;;;;5112425;28;20047;-69
2022/02/07 02:49:45;;;;;;;1.05;0.40;;;;;;;;;;5113067;28;20024;-69
2022/02/07 02:52:11;;;;;;;2.50;0.55;;;;;;;;;;5112737;28;20398;-69
2022/02/07 02:54:37;;;;;;;0.60;0.40;;;;;;;;;;5112162;28;20026;-69
2022/02/07 02:57:03;;;;;;;0.82;0.43;;;;;;;;;;5112334;28;20073;-69
2022/02/07 02:59:29;;;;;;;1.35;0.38;;;;;;;;;;5112729;28;20062;-69
2022/02/07 03:01:55;;;;;;;0.82;0.30;;;;;;;;;;5112420;28;20020;-69
2022/02/07 03:04:21;;;;;;;1.30;0.35;;;;;;;;;;5112454;28;20506;-69
2022/02/07 03:06:49;;;;;;;0.90;0.50;;;;;;;;;;5112482;28;20440;-69
2022/02/07 03:09:16;;;;;;;0.70;0.63;;;;;;;;;;5112733;28;20020;-69
2022/02/07 03:11:42;;;;;;;0.80;0.40;;;;;;;;;;5115480;28;20020;-69
2022/02/07 03:14:19;;;;;;;1.38;0.40;;;;;;;;;;5116515;28;20031;-69
2022/02/07 03:16:45;;;;;;;0.50;0.40;;;;;;;;;;5116190;28;20027;-69
2022/02/07 03:19:12;;;;;;;0.70;0.40;;;;;;;;;;5116715;28;20027;-69
2022/02/07 03:21:39;;;;;;;0.50;0.30;;;;;;;;;;5116266;28;20024;-69
2022/02/07 03:24:06;;;;;;;0.70;0.50;;;;;;;;;;5116655;28;20023;-69
2022/02/07 03:26:42;;;;;;;0.98;0.35;;;;;;;;;;5116126;28;20047;-69
2022/02/07 03:29:09;;;;;;;0.98;0.30;;;;;;;;;;5116336;28;20038;-69
2022/02/07 03:31:35;;;;;;;1.02;0.40;;;;;;;;;;5116213;28;20475;-69
2022/02/07 03:34:01;;;;;;;0.40;0.20;;;;;;;;;;5115920;28;20027;-69
2022/02/07 03:36:30;;;;;;;0.43;0.38;;;;;;;;;;5115937;28;20024;-69
2022/02/07 03:38:57;;;;;;;0.70;0.40;;;;;;;;;;5116037;28;20096;-69
2022/02/07 03:41:23;;;;;;;0.65;0.30;;;;;;;;;;5115885;28;20077;-69
2022/02/07 03:43:49;;;;;;;0.63;0.50;;;;;;;;;;5115627;28;20035;-69
2022/02/07 03:46:15;;;;;;;1.48;0.55;;;;;;;;;;5115851;28;20035;-69
2022/02/07 03:48:41;;;;;;;0.57;0.30;;;;;;;;;;5115610;28;20020;-69
2022/02/07 03:51:07;;;;;;;0.50;0.30;;;;;;;;;;5116053;28;20114;-69
2022/02/07 03:53:33;;;;;;;0.60;0.25;;;;;;;;;;5115441;28;20387;-69
2022/02/07 03:55:59;;;;;;;0.32;0.30;;;;;;;;;;5115539;28;20039;-69
2022/02/07 03:58:25;;;;;;;0.95;0.25;;;;;;;;;;5115202;28;20510;-69
2022/02/07 04:00:53;;;;;;;0.40;0.30;;;;;;;;;;5115738;28;20032;-69
2022/02/07 04:03:22;;;;;;;0.98;0.20;;;;;;;;;;5115189;28;20100;-69
2022/02/07 04:08:44;;;;;;;0.63;0.30;;;;;;;;;;5110962;28;20027;-69
2022/02/07 04:13:38;;;;;;;0.57;0.30;;;;;;;;;;5115184;28;20114;-69
2022/02/07 04:16:05;;;;;;;0.63;0.20;;;;;;;;;;5115436;28;20035;-69
2022/02/07 04:18:49;;;;;;;0.40;0.30;;;;;;;;;;5114928;28;20505;-69
2022/02/07 04:21:15;;;;;;;0.55;0.10;;;;;;;;;;5115028;28;20038;-69
2022/02/07 04:23:41;;;;;;;0.60;0.20;;;;;;;;;;5114047;28;20028;-69
2022/02/07 04:26:08;;;;;;;0.55;0.30;;;;;;;;;;5115066;28;20028;-69
2022/02/07 04:28:34;;;;;;;0.20;0.20;;;;;;;;;;5114715;28;20095;-69
2022/02/07 04:31:00;;;;;;;0.98;0.20;;;;;;;;;;5115098;28;20020;-69
2022/02/07 04:33:26;;;;;;;0.30;0.17;;;;;;;;;;5114570;28;20023;-69
2022/02/07 04:35:52;;;;;;;2.08;0.30;;;;;;;;;;5115136;28;20505;-69
2022/02/07 04:38:18;;;;;;;0.47;0.20;;;;;;;;;;5114569;28;20062;-69
2022/02/07 04:40:44;;;;;;;0.40;0.20;;;;;;;;;;5114931;28;20461;-69
2022/02/07 04:43:13;;;;;;;0.20;0.10;;;;;;;;;;5114301;28;20016;-69
2022/02/07 04:46:08;;;;;;;0.20;0.20;;;;;;;;;;5114713;28;20043;-69
2022/02/07 04:51:38;;;;;;;0.25;0.15;;;;;;;;;;5114555;28;20114;-69
2022/02/07 04:59:36;;;;;;;0.28;0.10;;;;;;;;;;5114207;28;20504;-69
2022/02/07 05:04:38;;;;;;;0.22;0.20;;;;;;;;;;5110536;28;20040;-69
2022/02/07 05:15:18;;;;;;;0.20;0.20;;;;;;;;;;5113807;28;20406;-69
2022/02/07 05:17:44;;;;;;;0.35;0.20;;;;;;;;;;5114020;28;20107;-69
2022/02/07 05:20:11;;;;;;;0.00;0.00;;;;;;;;;;5113633;28;20034;-69
2022/02/07 05:22:38;;;;;;;1.48;0.20;;;;;;;;;;5113811;28;20027;-69
2022/02/07 05:25:04;;;;;;;0.50;0.20;;;;;;;;;;5114044;28;20563;-69
2022/02/07 05:27:30;;;;;;;0.60;0.20;;;;;;;;;;5113683;28;20068;-69
2022/02/07 05:29:56;;;;;;;0.30;0.20;;;;;;;;;;5113714;28;20446;-69
2022/02/07 05:32:23;;;;;;;0.10;0.10;;;;;;;;;;5113586;28;20028;-69
2022/02/07 05:34:51;;;;;;;0.10;0.10;;;;;;;;;;5113681;28;20367;-69
2022/02/07 05:37:17;;;;;;;0.82;0.20;;;;;;;;;;5113889;28;20402;-69
2022/02/07 05:39:48;;;;;;;0.25;0.10;;;;;;;;;;5113289;28;20534;-69
2022/02/07 05:42:15;;;;;;;0.38;0.20;;;;;;;;;;5113619;28;20028;-69
2022/02/07 05:44:45;;;;;;;0.43;0.20;;;;;;;;;;5113300;28;20047;-69
2022/02/07 05:47:11;;;;;;;0.60;0.28;;;;;;;;;;5113380;28;20497;-69
2022/02/07 05:49:37;;;;;;;0.43;0.20;;;;;;;;;;5113123;28;20044;-69
2022/02/07 05:52:03;;;;;;;0.20;0.20;;;;;;;;;;5113238;28;20027;-69
2022/02/07 05:54:30;;;;;;;0.17;0.10;;;;;;;;;;5113062;28;20102;-69
2022/02/07 05:56:56;;;;;;;0.10;0.10;;;;;;;;;;5113337;28;20035;-69
2022/02/07 05:59:22;;;;;;;0.30;0.13;;;;;;;;;;5113011;28;20114;-69
2022/02/07 06:01:48;;;;;;;0.50;0.10;;;;;;;;;;5113419;28;20035;-69
2022/02/07 06:04:14;;;;;;;0.20;0.20;;;;;;;;;;5112828;28;20085;-69
2022/02/07 06:06:40;;;;;;;0.32;0.20;;;;;;;;;;5112980;28;20035;-69
2022/02/07 06:09:07;;;;;;;1.15;0.20;;;;;;;;;;5113100;28;20019;-69
2022/02/07 06:11:34;;;;;;;0.32;0.10;;;;;;;;;;5112874;28;20026;-69
2022/02/07 06:14:00;;;;;;;0.13;0.10;;;;;;;;;;5112939;28;20047;-69
2022/02/07 06:16:28;;;;;;;0.10;0.10;;;;;;;;;;5112954;28;20031;-69
2022/02/07 06:18:54;;;;;;;1.90;0.20;;;;;;;;;;5112979;28;20028;-69
2022/02/07 06:21:20;;;;;;;0.10;0.10;;;;;;;;;;5113283;28;20470;-69
2022/02/07 06:23:46;;;;;;;0.88;0.10;;;;;;;;;;5113110;28;20478;-69
2022/02/07 06:26:13;;;;;;;0.25;0.20;;;;;;;;;;5112591;28;20390;-69
2022/02/07 06:28:39;;;;;;;0.10;0.10;;;;;;;;;;5112773;28;20023;-69
2022/02/07 06:31:05;;;;;;;0.40;0.30;;;;;;;;;;5112833;28;20094;-69
2022/02/07 06:33:32;;;;;;;0.85;0.20;;;;;;;;;;5112833;28;20027;-69
2022/02/07 06:35:59;;;;;;;0.20;0.20;;;;;;;;;;5112751;28;20451;-69
2022/02/07 06:38:25;;;;;;;0.10;0.10;;;;;;;;;;5112770;28;20019;-69
2022/02/07 06:40:51;;;;;;;0.10;0.10;;;;;;;;;;5112451;28;20027;-69
2022/02/07 06:43:17;;;;;;;0.17;0.10;;;;;;;;;;5112430;28;20027;-69
2022/02/07 06:45:44;;;;;;;0.20;0.10;;;;;;;;;;5113682;28;20034;-69
2022/02/07 06:48:10;;;;;;;0.47;0.10;;;;;;;;;;5116748;28;20103;-69
2022/02/07 06:50:36;;;;;;;0.17;0.10;;;;;;;;;;5116608;28;20030;-69
2022/02/07 06:53:02;;;;;;;0.47;0.20;;;;;;;;;;5116673;28;20470;-69
2022/02/07 06:55:28;;;;;;;0.35;0.20;;;;;;;;;;5116478;28;20031;-69
2022/02/07 06:57:54;;;;;;;0.63;0.20;;;;;;;;;;5116719;28;20019;-69
2022/02/07 07:00:21;;;;;;;0.30;0.10;;;;;;;;;;5116540;28;20379;-69
2022/02/07 07:02:48;;;;;;;0.22;0.10;;;;;;;;;;5116387;28;20118;-69
2022/02/07 07:05:20;;;;;;;0.32;0.10;;;;;;;;;;5116526;28;20379;-69
2022/02/07 07:07:47;;;;;;;1.05;0.32;;;;;;;;;;5116405;28;20031;-69
2022/02/07 07:10:14;;;;;;;0.10;0.10;;;;;;;;;;5098108;28;20027;-69
2022/02/07 07:12:43;;;;;;;0.22;0.10;;;;;;;;;;5116264;28;20020;-69
2022/02/07 07:15:14;;;;;;;1.30;0.30;;;;;;;;;;5115902;28;20024;-69
2022/02/07 07:17:40;;;;;;;0.10;0.05;;;;;;;;;;5116351;28;20028;-69
2022/02/07 07:20:08;;;;;;;1.77;0.32;;;;;;;;;;5116150;28;20028;-69
2022/02/07 07:22:34;;;;;;;0.32;0.20;;;;;;;;;;5116288;28;20024;-69
2022/02/07 07:25:01;;;;;;;0.47;0.10;;;;;;;;;;5116210;28;20107;-69
2022/02/07 07:27:32;;;;;;;0.10;0.10;;;;;;;;;;5122070;27;20051;-69
2022/02/07 07:29:58;;;;;;;0.20;0.10;;;;;;;;;;5136717;27;20474;-69
2022/02/07 07:32:27;;;;;;;0.43;0.30;;;;;;;;;;5136003;27;20094;-69
2022/02/07 07:34:55;;;;;;;0.90;0.40;;;;;;;;;;5136060;27;20019;-70
2022/02/07 07:37:21;;;;;;;0.47;0.25;;;;;;;;;;5136553;27;20031;-70
2022/02/07 07:39:47;;;;;;;0.10;0.10;;;;;;;;;;5136426;27;20027;-70
2022/02/07 07:42:14;;;;;;;0.73;0.20;;;;;;;;;;5125309;27;20027;-70
2022/02/07 07:44:41;;;;;;;1.38;0.28;;;;;;;;;;5115779;28;20042;-70
2022/02/07 07:47:18;;;;;;;0.47;0.17;;;;;;;;;;5115383;28;20027;-70
2022/02/07 07:49:56;;;;;;;0.32;0.20;;;;;;;;;;5110770;28;20016;-72
2022/02/07 07:52:40;;;;;;;0.73;0.30;;;;;;;;;;5107485;28;20020;-73
2022/02/07 08:03:14;;;;;;;0.10;0.10;;;;;;;;;;5105786;28;20719;-74
2022/02/07 08:08:22;;;;;;;1.13;0.32;;;;;;;;;;5107923;28;20564;-72
2022/02/07 08:11:01;;;;;;;1.02;0.20;;;;;;;;;;5107794;28;20083;-73
2022/02/07 08:13:30;;;;;;;0.50;0.30;;;;;;;;;;5111585;27;20019;-71
2022/02/07 08:15:56;;;;;;;1.10;0.38;;;;;;;;;;5128442;27;20106;-73
2022/02/07 08:18:22;;;;;;;0.22;0.15;;;;;;;;;;5130169;27;20019;-73
2022/02/07 08:20:48;;;;;;;1.33;0.20;;;;;;;;;;5116693;27;20034;-72
2022/02/07 08:23:15;;;;;;;0.52;0.20;;;;;;;;;;5108230;28;20016;-73
2022/02/07 08:25:41;;;;;;;0.60;0.20;;;;;;;;;;5127803;27;20089;-73
2022/02/07 08:28:07;;;;;;;0.98;0.28;;;;;;;;;;5128384;27;20019;-73
2022/02/07 08:30:34;;;;;;;1.17;0.35;;;;;;;;;;5127127;27;20019;-74
2022/02/07 08:33:01;;;;;;;0.90;0.30;;;;;;;;;;5127908;27;20015;-73
2022/02/07 08:35:27;;;;;;;1.23;0.40;;;;;;;;;;5128089;27;20485;-73
2022/02/07 08:37:53;;;;;;;0.30;0.10;;;;;;;;;;5127950;27;20525;-74
2022/02/07 08:40:19;;;;;;;1.27;0.30;;;;;;;;;;5109201;27;20427;-73
2022/02/07 08:42:45;;;;;;;0.93;0.30;;;;;;;;;;5107187;27;20343;-72
2022/02/07 08:45:14;;;;;;;0.38;0.30;;;;;;;;;;5103083;28;20441;-74
2022/02/07 08:47:42;;;;;;;1.48;0.50;;;;;;;;;;5107080;28;20020;-74
2022/02/07 08:50:08;;;;;;;0.43;0.32;;;;;;;;;;5105515;28;20027;-74
2022/02/07 08:52:35;;;;;;;1.80;0.30;;;;;;;;;;5105986;28;20103;-73
2022/02/07 08:55:02;;;;;;;0.35;0.22;;;;;;;;;;5114564;27;20064;-74
2022/02/07 08:57:36;;;;;;;0.30;0.20;;;;;;;;;;5129483;27;20023;-73
2022/02/07 09:00:42;;;;;;;0.60;0.30;;;;;;;;;;5128215;27;20477;-72
2022/02/07 09:03:15;;;;;;;1.10;0.40;;;;;;;;;;5116580;27;20040;-73
2022/02/07 09:06:05;;;;;;;2.30;0.30;;;;;;;;;;5104726;27;20035;-72
2022/02/07 09:11:10;;;;;;;2.15;0.20;;;;;;;;;;5112086;27;20099;-71
2022/02/07 09:13:39;;;;;;;3.80;0.30;;;;;;;;;;5106967;27;20488;-72
2022/02/07 09:18:35;;;;;;;0.60;0.30;;;;;;;;;;5119636;27;20035;-72
2022/02/07 09:21:03;;;;;;;0.80;0.25;;;;;;;;;;5122972;27;20099;-74
2022/02/07 09:23:29;;;;;;;0.60;0.25;;;;;;;;;;5106053;28;20024;-71
2022/02/07 09:25:56;;;;;;;0.55;0.30;;;;;;;;;;5088075;28;20671;-75
2022/02/07 09:28:23;;;;;;;2.40;0.25;;;;;;;;;;5108388;27;20062;-73
2022/02/07 09:30:50;;;;;;;2.10;0.20;;;;;;;;;;5115181;27;20020;-73
2022/02/07 09:33:16;;;;;;;2.67;0.65;;;;;;;;;;5109803;27;20015;-75
2022/02/07 09:35:43;;;;;;;0.93;0.30;;;;;;;;;;5124821;27;20015;-75
2022/02/07 09:38:09;;;;;;;1.20;0.38;;;;;;;;;;5104469;27;20033;-74
2022/02/07 09:40:36;;;;;;;0.75;0.30;;;;;;;;;;5124344;27;20020;-72
2022/02/07 09:43:02;;;;;;;1.95;0.30;;;;;;;;;;5113233;27;20046;-72
2022/02/07 09:45:32;;;;;;;0.93;0.35;;;;;;;;;;5124156;27;20051;-71
2022/02/07 09:47:58;;;;;;;1.08;0.22;;;;;;;;;;5123314;27;20473;-72
2022/02/07 09:50:25;;;;;;;2.83;0.30;;;;;;;;;;5125011;27;20098;-75
2022/02/07 09:52:51;;;;;;;1.20;0.43;;;;;;;;;;5111945;27;20008;-75
2022/02/07 09:55:17;;;;;;;2.20;0.20;;;;;;;;;;5114966;27;20084;-75
2022/02/07 09:57:43;;;;;;;2.80;0.22;;;;;;;;;;5110760;27;20019;-76
2022/02/07 10:00:18;;;;;;;0.65;0.32;;;;;;;;;;5098414;27;20038;-76
2022/02/07 10:03:04;;;;;;;0.45;0.20;;;;;;;;;;5099056;27;20039;-77
2022/02/07 10:05:33;;;;;;;1.17;0.50;;;;;;;;;;5081624;28;20031;-75
2022/02/07 10:10:52;;;;;;;3.67;0.53;;;;;;;;;;5124031;27;20027;-73
2022/02/07 10:16:01;;;;;;;5.65;0.30;;;;;;;;;;5114027;27;20023;-73
2022/02/07 10:18:58;;;;;;;1.05;0.40;;;;;;;;;;5122750;27;20047;-74
2022/02/07 10:22:06;;;;;;;2.60;0.40;;;;;;;;;;5114189;27;20042;-73
2022/02/07 10:36:02;;;;;;;12.73;1.00;;;;;;;;;;5107030;27;20058;-74
2022/02/07 10:38:25;;;;;;;2.25;0.30;;;;;;;;;;5125033;27;20031;-75
2022/02/07 10:41:19;;;;;;;0.98;0.22;;;;;;;;;;5114647;27;20030;-73
2022/02/07 10:46:16;;;;;;;0.70;0.30;;;;;;;;;;5115153;28;20027;-73
2022/02/07 10:48:54;;;;;;;4.13;0.55;;;;;;;;;;5113377;28;20142;-77
2022/02/07 10:51:25;;;;;;;1.73;0.20;;;;;;;;;;5121769;28;20033;-76
2022/02/07 10:53:53;;;;;;;1.42;0.50;;;;;;;;;;5100571;28;20026;-72
2022/02/07 10:56:21;;;;;;;1.10;0.30;;;;;;;;;;5114204;28;20027;-72
2022/02/07 10:58:50;;;;;;;3.38;0.30;;;;;;;;;;5115040;28;20510;-73
2022/02/07 11:02:02;;;;;;;1.95;0.30;;;;;;;;;;5106749;28;20067;-73
2022/02/07 11:04:09;;;;;;;2.40;0.45;;;;;;;;;;5109720;28;20534;-73
2022/02/07 11:06:38;;;;;;;18.80;1.88;;;;;;;;;;5110126;28;20023;-73
2022/02/07 11:09:17;;;;;;;13.65;1.52;;;;;;;;;;5102773;28;20565;-73
2022/02/07 11:19:54;;;;;;;11.38;1.10;;;;;;;;;;5113565;28;20111;-73
2022/02/07 11:27:50;;;;;;;10.55;1.35;;;;;;;;;;5114421;28;20402;-74
2022/02/07 11:30:17;;;;;;;8.07;1.35;;;;;;;;;;5118878;28;20062;-73
2022/02/07 11:32:45;;;;;;;5.05;0.88;;;;;;;;;;5116263;27;20034;-74
2022/02/07 11:35:11;;;;;;;15.13;1.55;;;;;;;;;;5126954;27;20047;-74
2022/02/07 11:37:38;;;;;;;15.60;2.05;;;;;;;;;;5129031;27;20076;-73
2022/02/07 11:40:22;;;;;;;8.57;1.13;;;;;;;;;;5118140;27;20411;-73
2022/02/07 11:43:07;;;;;;;5.60;0.80;;;;;;;;;;5116021;27;20469;-73
2022/02/07 11:45:52;;;;;;;5.75;0.77;;;;;;;;;;5123559;27;20048;-74
2022/02/07 11:48:19;;;;;;;7.32;1.25;;;;;;;;;;5108483;27;20031;-73
2022/02/07 11:50:46;;;;;;;3.28;0.65;;;;;;;;;;5112202;27;20034;-74
2022/02/07 11:53:15;;;;;;;4.70;0.77;;;;;;;;;;5111348;27;20081;-73
2022/02/07 11:55:43;;;;;;;11.70;0.98;;;;;;;;;;5117091;27;20084;-74
2022/02/07 11:58:27;;;;;;;4.97;0.80;;;;;;;;;;5113019;27;20034;-74
2022/02/07 12:00:57;;;;;;;7.05;0.90;;;;;;;;;;5126205;27;20031;-74
2022/02/07 12:03:25;;;;;;;7.10;1.23;;;;;;;;;;5119267;27;20485;-73
2022/02/07 12:05:53;;;;;;;3.90;0.70;;;;;;;;;;5122517;27;20024;-74
2022/02/07 12:08:24;;;;;;;1.83;0.82;;;;;;;;;;5112930;27;20019;-74
2022/02/07 12:11:03;;;;;;;8.18;0.75;;;;;;;;;;5109440;28;20020;-73
2022/02/07 12:13:33;;;;;;;6.25;0.70;;;;;;;;;;5110174;27;20029;-73
2022/02/07 12:16:21;;;;;;;7.88;0.90;;;;;;;;;;5120326;27;20402;-73
2022/02/07 12:19:08;;;;;;;7.82;1.13;;;;;;;;;;5106763;28;20028;-73
2022/02/07 12:21:34;;;;;;;4.97;0.60;;;;;;;;;;5071845;28;20044;-73
2022/02/07 12:24:02;;;;;;;5.43;0.70;;;;;;;;;;5085100;28;20031;-73
2022/02/07 12:26:31;;;;;;;5.00;0.80;;;;;;;;;;5086313;28;20031;-73
2022/02/07 12:29:00;;;;;;;5.18;0.85;;;;;;;;;;5126688;27;20632;-73
2022/02/07 12:31:26;;;;;;;4.10;0.70;;;;;;;;;;5107601;27;20027;-72
2022/02/07 12:33:54;;;;;;;2.55;0.60;;;;;;;;;;5125819;27;20027;-72
2022/02/07 12:36:21;;;;;;;6.32;0.60;;;;;;;;;;5127173;27;20027;-73
2022/02/07 12:38:47;;;;;;;4.55;0.95;;;;;;;;;;5126421;27;20029;-73
2022/02/07 12:41:14;;;;;;;1.85;0.55;;;;;;;;;;5125235;27;20039;-73
2022/02/07 12:43:41;;;;;;;2.55;0.55;;;;;;;;;;5105768;28;20034;-73
2022/02/07 12:46:10;;;;;;;3.05;0.52;;;;;;;;;;5109591;28;20103;-74
2022/02/07 12:48:40;;;;;;;3.50;0.65;;;;;;;;;;5108122;28;20035;-73
2022/02/07 12:51:06;;;;;;;4.53;0.50;;;;;;;;;;5106376;28;20014;-73
2022/02/07 12:53:32;;;;;;;2.00;0.50;;;;;;;;;;5104329;28;20019;-73
2022/02/07 12:56:00;;;;;;;4.75;0.73;;;;;;;;;;5109234;27;20147;-73
2022/02/07 12:58:28;;;;;;;5.30;0.40;;;;;;;;;;5115409;27;20638;-73
2022/02/07 13:00:54;;;;;;;2.70;0.60;;;;;;;;;;5123273;27;20030;-72
2022/02/07 13:03:21;;;;;;;2.67;0.50;;;;;;;;;;5125562;27;20564;-74
2022/02/07 13:05:48;;;;;;;1.73;0.50;;;;;;;;;;5124912;27;20033;-73
2022/02/07 13:08:15;;;;;;;3.53;0.30;;;;;;;;;;5126899;27;20486;-73
2022/02/07 13:10:55;;;;;;;4.53;0.73;;;;;;;;;;5108236;27;20426;-72
2022/02/07 13:13:29;;;;;;;6.05;0.80;;;;;;;;;;5126118;27;20015;-72
2022/02/07 13:15:56;;;;;;;1.95;0.60;;;;;;;;;;5116090;27;20657;-75
2022/02/07 13:18:22;;;;;;;3.50;0.40;;;;;;;;;;5117352;27;20550;-75
2022/02/07 13:20:50;;;;;;;2.38;0.30;;;;;;;;;;5108474;28;20095;-75
2022/02/07 13:23:18;;;;;;;1.27;0.30;;;;;;;;;;5117830;27;20015;-76
2022/02/07 13:25:47;;;;;;;1.52;0.30;;;;;;;;;;5126090;27;20393;-76
2022/02/07 13:28:14;;;;;;;2.72;0.52;;;;;;;;;;5125852;27;20431;-74
2022/02/07 13:30:46;;;;;;;3.42;0.50;;;;;;;;;;5104974;28;20023;-75
2022/02/07 13:33:13;;;;;;;2.30;1.05;;;;;;;;;;5125391;27;20020;-77
2022/02/07 13:35:42;;;;;;;1.95;0.40;;;;;;;;;;5122561;27;20024;-75
2022/02/07 13:38:09;;;;;;;4.10;0.73;;;;;;;;;;5126916;27;20500;-76
2022/02/07 13:40:43;;;;;;;2.53;0.45;;;;;;;;;;5115518;27;20110;-76
2022/02/07 13:43:10;;;;;;;10.20;0.50;;;;;;;;;;5109187;27;20020;-76
2022/02/07 13:45:37;;;;;;;3.70;0.90;;;;;;;;;;5108900;27;20382;-77
2022/02/07 13:48:03;;;;;;;3.05;0.50;;;;;;;;;;5127184;27;20490;-76
2022/02/07 13:50:35;;;;;;;4.07;0.50;;;;;;;;;;5127051;27;20031;-75
2022/02/07 13:53:04;;;;;;;2.97;0.40;;;;;;;;;;5125569;27;20056;-75
2022/02/07 13:55:31;;;;;;;2.72;0.40;;;;;;;;;;5122532;27;20015;-75
2022/02/07 13:58:17;;;;;;;0.47;0.28;;;;;;;;;;5098989;27;20031;-77
2022/02/07 14:00:49;;;;;;;2.75;0.20;;;;;;;;;;5124625;27;20076;-74
2022/02/07 14:03:15;;;;;;;2.25;0.20;;;;;;;;;;5112524;27;20126;-74
2022/02/07 14:05:47;;;;;;;1.40;0.40;;;;;;;;;;5120758;27;20498;-75
2022/02/07 14:08:14;;;;;;;0.52;0.20;;;;;;;;;;5124699;27;20046;-76
2022/02/07 14:10:42;;;;;;;1.70;0.40;;;;;;;;;;5106813;27;20023;-76
2022/02/07 14:13:10;;;;;;;0.77;0.30;;;;;;;;;;5103332;27;20023;-76
2022/02/07 14:15:37;;;;;;;2.58;0.38;;;;;;;;;;5118685;27;20054;-72
2022/02/07 14:18:06;;;;;;;1.55;0.50;;;;;;;;;;5104838;28;20740;-76
2022/02/07 14:20:34;;;;;;;0.40;0.13;;;;;;;;;;5088466;27;20050;-76
2022/02/07 14:23:00;;;;;;;1.25;0.22;;;;;;;;;;5125843;27;20023;-77
2022/02/07 14:25:30;;;;;;;0.88;0.28;;;;;;;;;;5127411;27;20458;-75
2022/02/07 14:27:57;;;;;;;0.47;0.30;;;;;;;;;;5108994;28;20019;-74
2022/02/07 14:30:24;;;;;;;1.60;0.50;;;;;;;;;;5126502;27;20482;-74
2022/02/07 14:32:51;;;;;;;0.73;0.28;;;;;;;;;;5117190;27;20020;-76
2022/02/07 14:35:18;;;;;;;0.60;0.30;;;;;;;;;;5104281;28;20080;-74
2022/02/07 14:37:44;;;;;;;1.63;0.30;;;;;;;;;;5121537;27;20487;-75
2022/02/07 14:40:10;;;;;;;1.40;0.30;;;;;;;;;;5125638;27;20027;-75
2022/02/07 14:42:37;;;;;;;2.00;0.30;;;;;;;;;;5110821;28;20549;-74
2022/02/07 14:45:13;;;;;;;2.83;0.50;;;;;;;;;;5104064;28;20487;-74
2022/02/07 14:47:51;;;;;;;2.35;0.40;;;;;;;;;;5104173;28;20062;-75
2022/02/07 14:50:26;;;;;;;3.83;0.60;;;;;;;;;;5104492;28;20027;-76
2022/02/07 14:52:52;;;;;;;1.08;0.40;;;;;;;;;;5103503;28;20417;-74
2022/02/07 14:55:19;;;;;;;0.82;0.30;;;;;;;;;;5104297;28;20099;-71
2022/02/07 14:57:45;;;;;;;1.00;0.30;;;;;;;;;;5105100;28;20024;-73
2022/02/07 15:00:13;;;;;;;1.40;0.40;;;;;;;;;;5106448;28;20028;-74
2022/02/07 15:02:40;;;;;;;2.42;0.52;;;;;;;;;;5104909;28;20036;-74
2022/02/07 15:05:07;;;;;;;0.55;0.25;;;;;;;;;;5104817;28;20056;-72
2022/02/07 15:07:33;;;;;;;0.75;0.20;;;;;;;;;;5127843;27;20029;-72
2022/02/07 15:09:59;;;;;;;1.23;0.38;;;;;;;;;;5127996;27;20030;-73
2022/02/07 15:12:26;;;;;;;2.33;0.40;;;;;;;;;;5128101;27;20148;-72
2022/02/07 15:14:52;;;;;;;0.40;0.40;;;;;;;;;;5127775;27;20027;-71
2022/02/07 15:17:19;;;;;;;1.63;0.40;;;;;;;;;;5108231;28;20047;-71
2022/02/07 15:19:45;;;;;;;0.73;0.40;;;;;;;;;;5108171;28;20600;-73
2022/02/07 15:22:11;;;;;;;0.90;0.20;;;;;;;;;;5121092;27;20110;-71
2022/02/07 15:24:38;;;;;;;1.90;0.40;;;;;;;;;;5128318;27;20023;-72
2022/02/07 15:27:04;;;;;;;1.25;0.20;;;;;;;;;;5128340;27;20092;-74
2022/02/07 15:29:30;;;;;;;1.65;0.30;;;;;;;;;;5129623;27;20069;-70
2022/02/07 15:32:20;;;;;;;3.15;0.30;;;;;;;;;;5110366;27;20513;-71
2022/02/07 15:34:43;;;;;;;1.20;0.30;;;;;;;;;;5119220;27;20067;-72
2022/02/07 15:37:09;;;;;;;2.38;1.00;;;;;;;;;;5128958;27;20026;-73
2022/02/07 15:39:35;;;;;;;3.80;0.40;;;;;;;;;;5127869;27;20035;-71
2022/02/07 15:42:01;;;;;;;1.38;0.45;;;;;;;;;;5116151;27;20397;-74
2022/02/07 15:44:27;;;;;;;1.67;0.50;;;;;;;;;;5115320;27;20035;-74
2022/02/07 15:46:53;;;;;;;1.38;0.30;;;;;;;;;;5126716;27;20342;-71
2022/02/07 15:49:20;;;;;;;4.20;0.90;;;;;;;;;;5133921;27;20027;-74
2022/02/07 15:51:46;;;;;;;2.58;0.60;;;;;;;;;;5133321;27;20023;-74
2022/02/07 15:54:13;;;;;;;4.93;0.60;;;;;;;;;;5118305;27;20502;-74
2022/02/07 15:56:39;;;;;;;1.92;0.45;;;;;;;;;;5123419;27;20019;-74
2022/02/07 15:59:05;;;;;;;2.33;0.50;;;;;;;;;;5116908;27;20102;-75
2022/02/07 16:01:31;;;;;;;3.17;0.70;;;;;;;;;;5113660;28;20024;-74
2022/02/07 16:03:57;;;;;;;2.63;0.50;;;;;;;;;;5113657;28;20051;-74
2022/02/07 16:06:24;;;;;;;1.98;0.47;;;;;;;;;;5115376;27;20023;-74
2022/02/07 16:08:50;;;;;;;2.63;0.85;;;;;;;;;;5112959;28;20030;-74
2022/02/07 16:11:18;;;;;;;1.95;0.40;;;;;;;;;;5111393;28;20019;-74
2022/02/07 16:13:50;;;;;;;3.42;0.70;;;;;;;;;;5112493;28;20118;-74
2022/02/07 16:16:16;;;;;;;4.05;0.68;;;;;;;;;;5114304;28;20027;-74
2022/02/07 16:18:44;;;;;;;3.30;1.10;;;;;;;;;;5112855;28;20529;-73
2022/02/07 16:21:10;;;;;;;3.63;0.75;;;;;;;;;;5113271;28;20032;-73
2022/02/07 16:23:36;;;;;;;2.40;0.70;;;;;;;;;;5128610;27;20035;-73
2022/02/07 16:26:02;;;;;;;1.88;0.85;;;;;;;;;;5135177;27;20167;-73
2022/02/07 16:28:28;;;;;;;2.92;0.88;;;;;;;;;;5135998;27;20512;-74
2022/02/07 16:30:54;;;;;;;3.40;0.80;;;;;;;;;;5131183;27;20019;-73
2022/02/07 16:33:21;;;;;;;3.20;0.90;;;;;;;;;;5133172;27;20031;-73
2022/02/07 16:35:47;;;;;;;2.10;1.02;;;;;;;;;;5134969;27;20103;-73
2022/02/07 16:38:13;;;;;;;2.58;0.80;;;;;;;;;;5135126;27;20034;-74
2022/02/07 16:40:41;;;;;;;2.28;0.88;;;;;;;;;;5135165;27;20107;-74
2022/02/07 16:43:07;;;;;;;4.47;1.08;;;;;;;;;;5117053;27;20067;-74
2022/02/07 16:48:10;;;;;;;2.28;0.90;;;;;;;;;;5113785;28;20397;-74
2022/02/07 16:50:36;;;;;;;5.32;1.05;;;;;;;;;;5113854;28;20019;-74
2022/02/07 16:53:02;;;;;;;1.73;0.80;;;;;;;;;;5112873;28;20390;-74
2022/02/07 16:55:28;;;;;;;2.63;1.00;;;;;;;;;;5112771;28;20011;-74
2022/02/07 16:57:55;;;;;;;2.63;0.88;;;;;;;;;;5111879;28;20038;-74
2022/02/07 17:00:21;;;;;;;2.67;0.98;;;;;;;;;;5113038;28;20545;-74
2022/02/07 17:02:48;;;;;;;4.15;0.88;;;;;;;;;;5112813;28;20051;-74
2022/02/07 17:05:16;;;;;;;1.35;0.73;;;;;;;;;;5113804;28;20019;-74
2022/02/07 17:07:46;;;;;;;3.47;0.90;;;;;;;;;;5113841;28;20036;-74
2022/02/07 17:10:12;;;;;;;3.35;1.10;;;;;;;;;;5110317;28;20042;-74
2022/02/07 17:12:38;;;;;;;5.15;1.20;;;;;;;;;;5113449;28;20026;-74
2022/02/07 17:15:04;;;;;;;2.25;0.95;;;;;;;;;;5113830;28;20425;-74
2022/02/07 17:17:32;;;;;;;2.22;1.00;;;;;;;;;;5113780;28;20385;-74
2022/02/07 17:19:58;;;;;;;4.25;1.25;;;;;;;;;;5113758;28;20025;-74
2022/02/07 17:22:25;;;;;;;4.10;1.00;;;;;;;;;;5112951;28;20077;-74
2022/02/07 17:24:51;;;;;;;2.40;1.15;;;;;;;;;;5113715;28;20088;-74
2022/02/07 17:27:17;;;;;;;1.23;1.00;;;;;;;;;;5113265;28;20031;-74